createdAt,value
2023-05-08T00:00:29.034Z,9.75
2023-05-08T00:01:32.422Z,9.15
2023-05-08T00:02:34.255Z,10.38
2023-05-08T00:03:36.282Z,9.57
2023-05-08T00:04:38.536Z,10.20
2023-05-08T00:05:41.681Z,9.43
2023-05-08T00:06:43.919Z,10.32
2023-05-08T00:07:45.846Z,9.32
2023-05-08T00:08:47.633Z,9.32
2023-05-08T00:09:49.396Z,10.25
2023-05-08T00:10:51.272Z,11.02
2023-05-08T00:11:52.977Z,10.25
2023-05-08T00:12:55.431Z,11.15
2023-05-08T00:13:57.214Z,9.75
2023-05-08T00:14:59.992Z,8.40
2023-05-08T00:16:04.300Z,9.60
2023-05-08T00:17:06.203Z,10.25
2023-05-08T00:18:09.032Z,9.52
2023-05-08T00:19:10.866Z,9.63
2023-05-08T00:20:12.988Z,9.65
2023-05-08T00:21:14.935Z,10.65
2023-05-08T00:22:16.650Z,10.32
2023-05-08T00:23:20.754Z,9.82
2023-05-08T00:24:22.497Z,9.85
2023-05-08T00:25:24.236Z,9.93
2023-05-08T00:26:29.719Z,9.57
2023-05-08T00:27:34.490Z,9.50
2023-05-08T00:28:36.253Z,8.88
2023-05-08T00:29:40.870Z,9.10
2023-05-08T00:30:43.117Z,10.50
2023-05-08T00:31:45.022Z,10.02
2023-05-08T00:32:49.579Z,10.68
2023-05-08T00:33:51.384Z,9.90
2023-05-08T00:34:53.548Z,10.60
2023-05-08T00:36:02.449Z,10.57
2023-05-08T00:37:04.127Z,10.60
2023-05-08T00:38:05.676Z,9.27
2023-05-08T00:39:09.708Z,10.25
2023-05-08T00:40:12.452Z,9.65
2023-05-08T00:41:14.418Z,11.05
2023-05-08T00:42:16.197Z,9.93
2023-05-08T00:43:17.930Z,11.55
2023-05-08T00:44:19.924Z,8.98
2023-05-08T00:45:21.611Z,11.27
2023-05-08T00:46:23.374Z,9.60
2023-05-08T00:47:25.142Z,10.30
2023-05-08T00:48:31.032Z,9.60
2023-05-08T00:49:32.830Z,9.57
2023-05-08T00:50:35.508Z,10.32
2023-05-08T00:51:37.981Z,10.65
2023-05-08T00:52:39.817Z,10.23
2023-05-08T00:53:43.148Z,11.25
2023-05-08T00:54:45.309Z,9.98
2023-05-08T00:55:49.771Z,10.82
2023-05-08T00:56:52.176Z,9.63
2023-05-08T00:57:54.042Z,12.48
2023-05-08T00:58:55.794Z,11.20
2023-05-08T00:59:57.775Z,11.70
2023-05-08T01:00:59.913Z,11.60
2023-05-08T01:02:02.189Z,11.63
2023-05-08T01:03:04.865Z,11.35
2023-05-08T01:04:07.111Z,10.13
2023-05-08T01:05:08.962Z,10.73
2023-05-08T01:06:10.766Z,10.30
2023-05-08T01:07:12.862Z,11.13
2023-05-08T01:08:14.682Z,10.70
2023-05-08T01:09:16.351Z,10.95
2023-05-08T01:10:18.048Z,11.55
2023-05-08T01:11:28.913Z,10.32
2023-05-08T01:12:36.541Z,11.27
2023-05-08T01:13:47.449Z,10.57
2023-05-08T01:14:52.398Z,10.98
2023-05-08T01:16:16.175Z,9.88
2023-05-08T01:17:37.090Z,11.10
2023-05-08T01:18:42.915Z,12.52
2023-05-08T01:20:17.949Z,12.38
2023-05-08T01:21:27.691Z,12.85
2023-05-08T01:22:47.723Z,11.77
2023-05-08T01:24:16.209Z,12.98
2023-05-08T01:25:36.534Z,11.00
2023-05-08T01:26:57.659Z,12.85
2023-05-08T01:27:59.353Z,11.90
2023-05-08T01:29:12.959Z,13.27
2023-05-08T01:30:15.005Z,12.95
2023-05-08T01:31:35.334Z,10.60
2023-05-08T01:32:39.237Z,10.85
2023-05-08T01:34:07.083Z,13.05
2023-05-08T01:35:27.113Z,11.82
2023-05-08T01:36:48.949Z,11.65
2023-05-08T01:37:59.677Z,11.63
2023-05-08T01:39:05.138Z,11.02
2023-05-08T01:40:13.374Z,11.70
2023-05-08T01:41:17.308Z,12.63
2023-05-08T01:42:24.303Z,12.50
2023-05-08T01:43:35.145Z,11.50
2023-05-08T01:44:39.125Z,12.75
2023-05-08T01:45:41.861Z,13.02
2023-05-08T01:46:45.587Z,11.25
2023-05-08T01:47:51.873Z,12.75
2023-05-08T01:48:59.262Z,12.57
2023-05-08T01:50:11.944Z,12.25
2023-05-08T01:51:19.494Z,12.82
2023-05-08T01:52:22.614Z,11.10
2023-05-08T01:53:31.933Z,12.55
2023-05-08T01:55:06.924Z,11.40
2023-05-08T01:56:13.961Z,10.45
2023-05-08T01:57:18.076Z,12.75
2023-05-08T01:58:20.491Z,12.00
2023-05-08T01:59:23.447Z,11.52
2023-05-08T02:00:28.718Z,12.23
2023-05-08T02:01:32.247Z,11.80
2023-05-08T02:02:35.805Z,11.55
2023-05-08T02:03:39.405Z,11.15
2023-05-08T02:04:43.800Z,9.93
2023-05-08T02:05:46.952Z,10.50
2023-05-08T02:06:49.538Z,10.25
2023-05-08T02:07:51.865Z,11.18
2023-05-08T02:08:53.937Z,13.25
2023-05-08T02:09:55.969Z,11.52
2023-05-08T02:11:00.718Z,11.05
2023-05-08T02:12:03.159Z,11.27
2023-05-08T02:13:05.129Z,11.07
2023-05-08T02:14:07.300Z,11.93
2023-05-08T02:15:09.667Z,10.85
2023-05-08T02:16:11.886Z,11.93
2023-05-08T02:17:18.373Z,10.95
2023-05-08T02:18:21.313Z,11.35
2023-05-08T02:19:23.770Z,12.68
2023-05-08T02:20:27.021Z,13.93
2023-05-08T02:21:29.125Z,12.75
2023-05-08T02:22:32.324Z,11.48
2023-05-08T02:23:34.707Z,12.18
2023-05-08T02:24:37.103Z,11.27
2023-05-08T02:25:40.239Z,12.48
2023-05-08T02:26:42.656Z,11.05
2023-05-08T02:27:45.758Z,14.80
2023-05-08T02:28:48.461Z,12.55
2023-05-08T02:29:54.319Z,12.18
2023-05-08T02:30:58.003Z,12.25
2023-05-08T02:32:01.163Z,12.50
2023-05-08T02:33:04.311Z,12.45
2023-05-08T02:34:06.577Z,12.23
2023-05-08T02:35:09.062Z,12.70
2023-05-08T02:36:14.969Z,11.55
2023-05-08T02:37:18.542Z,12.43
2023-05-08T02:38:21.752Z,12.02
2023-05-08T02:39:25.624Z,12.60
2023-05-08T02:40:28.491Z,10.65
2023-05-08T02:41:32.290Z,12.27
2023-05-08T02:42:33.891Z,12.45
2023-05-08T02:43:35.657Z,11.85
2023-05-08T02:44:37.315Z,12.80
2023-05-08T02:45:45.938Z,11.65
2023-05-08T02:46:56.076Z,13.55
2023-05-08T02:48:07.445Z,12.48
2023-05-08T02:49:13.358Z,13.15
2023-05-08T02:50:23.614Z,12.40
2023-05-08T02:51:37.370Z,12.85
2023-05-08T02:52:44.473Z,11.73
2023-05-08T02:53:48.050Z,12.35
2023-05-08T02:55:01.561Z,12.45
2023-05-08T02:56:18.993Z,12.87
2023-05-08T02:57:20.508Z,12.98
2023-05-08T02:58:24.934Z,13.40
2023-05-08T02:59:31.858Z,13.45
2023-05-08T03:00:37.880Z,12.82
2023-05-08T03:01:45.935Z,13.25
2023-05-08T03:02:49.939Z,12.82
2023-05-08T03:04:00.176Z,12.13
2023-05-08T03:05:08.787Z,11.98
2023-05-08T03:06:14.322Z,11.60
2023-05-08T03:07:16.309Z,12.43
2023-05-08T03:08:19.675Z,12.57
2023-05-08T03:09:23.245Z,13.20
2023-05-08T03:10:26.873Z,14.35
2023-05-08T03:11:32.196Z,14.00
2023-05-08T03:12:34.621Z,11.18
2023-05-08T03:13:37.656Z,11.50
2023-05-08T03:14:41.749Z,11.60
2023-05-08T03:15:48.059Z,13.07
2023-05-08T03:16:52.196Z,11.57
2023-05-08T03:17:55.546Z,13.32
2023-05-08T03:18:59.704Z,13.52
2023-05-08T03:20:03.815Z,12.77
2023-05-08T03:21:06.496Z,12.70
2023-05-08T03:22:11.423Z,14.63
2023-05-08T03:23:14.047Z,13.13
2023-05-08T03:24:17.648Z,13.80
2023-05-08T03:25:20.652Z,13.13
2023-05-08T03:26:22.477Z,14.23
2023-05-08T03:27:24.625Z,13.18
2023-05-08T03:28:27.737Z,12.73
2023-05-08T03:29:30.625Z,15.02
2023-05-08T03:30:35.512Z,13.10
2023-05-08T03:31:37.347Z,13.52
2023-05-08T03:32:39.178Z,13.13
2023-05-08T03:33:42.685Z,14.27
2023-05-08T03:34:44.978Z,12.48
2023-05-08T03:35:47.797Z,13.02
2023-05-08T03:36:49.442Z,13.43
2023-05-08T03:37:53.446Z,12.70
2023-05-08T03:38:55.117Z,12.63
2023-05-08T03:39:56.967Z,12.23
2023-05-08T03:40:59.289Z,12.73
2023-05-08T03:42:00.930Z,12.60
2023-05-08T03:43:03.857Z,11.93
2023-05-08T03:44:05.925Z,12.65
2023-05-08T03:45:09.758Z,12.43
2023-05-08T03:46:11.844Z,11.65
2023-05-08T03:47:13.460Z,14.23
2023-05-08T03:48:19.121Z,12.82
2023-05-08T03:49:23.714Z,12.77
2023-05-08T03:50:25.786Z,13.98
2023-05-08T03:51:37.366Z,11.82
2023-05-08T03:52:42.365Z,14.65
2023-05-08T03:53:43.925Z,11.45
2023-05-08T03:54:45.837Z,12.05
2023-05-08T03:55:51.417Z,13.68
2023-05-08T03:56:54.092Z,11.68
2023-05-08T03:57:57.778Z,12.40
2023-05-08T03:59:17.085Z,12.85
2023-05-08T04:00:39.767Z,13.30
2023-05-08T04:01:48.896Z,14.90
2023-05-08T04:02:52.636Z,12.55
2023-05-08T04:04:00.105Z,12.20
2023-05-08T04:05:05.713Z,13.70
2023-05-08T04:06:11.337Z,12.27
2023-05-08T04:07:25.044Z,13.57
2023-05-08T04:08:32.506Z,13.23
2023-05-08T04:09:53.075Z,12.18
2023-05-08T04:11:04.368Z,13.55
2023-05-08T04:12:24.457Z,13.93
2023-05-08T04:13:28.662Z,15.63
2023-05-08T04:14:33.309Z,14.05
2023-05-08T04:15:41.512Z,14.55
2023-05-08T04:16:48.600Z,13.20
2023-05-08T04:17:51.991Z,14.55
2023-05-08T04:19:04.044Z,12.52
2023-05-08T04:20:07.378Z,14.80
2023-05-08T04:21:14.221Z,13.63
2023-05-08T04:22:18.553Z,13.85
2023-05-08T04:23:21.445Z,15.07
2023-05-08T04:24:23.679Z,13.07
2023-05-08T04:25:26.426Z,12.68
2023-05-08T04:26:29.385Z,12.75
2023-05-08T04:27:31.376Z,12.80
2023-05-08T04:28:33.854Z,13.35
2023-05-08T04:29:35.776Z,14.40
2023-05-08T04:30:37.737Z,13.60
2023-05-08T04:31:40.331Z,14.23
2023-05-08T04:32:45.528Z,12.07
2023-05-08T04:33:49.349Z,14.95
2023-05-08T04:34:51.180Z,15.20
2023-05-08T04:35:52.874Z,15.02
2023-05-08T04:36:54.729Z,13.73
2023-05-08T04:37:56.352Z,14.70
2023-05-08T04:38:59.101Z,13.52
2023-05-08T04:40:01.277Z,13.13
2023-05-08T04:41:07.100Z,15.23
2023-05-08T04:42:09.014Z,14.93
2023-05-08T04:43:13.145Z,12.70
2023-05-08T04:44:14.900Z,13.60
2023-05-08T04:45:19.183Z,13.25
2023-05-08T04:46:20.784Z,12.32
2023-05-08T04:47:24.255Z,12.90
2023-05-08T04:48:26.101Z,13.77
2023-05-08T04:49:28.825Z,12.05
2023-05-08T04:50:30.989Z,12.85
2023-05-08T04:51:32.555Z,13.63
2023-05-08T04:52:34.144Z,14.07
2023-05-08T04:53:35.698Z,13.00
2023-05-08T04:54:37.371Z,14.48
2023-05-08T04:55:38.906Z,14.18
2023-05-08T04:56:40.549Z,13.20
2023-05-08T04:57:42.057Z,12.30
2023-05-08T04:58:46.010Z,12.73
2023-05-08T04:59:47.658Z,12.80
2023-05-08T05:00:49.187Z,13.68
2023-05-08T05:01:51.054Z,12.38
2023-05-08T05:02:52.680Z,14.73
2023-05-08T05:03:54.242Z,12.27
2023-05-08T05:05:01.475Z,13.68
2023-05-08T05:06:03.118Z,14.73
2023-05-08T05:07:05.180Z,12.32
2023-05-08T05:08:08.193Z,12.52
2023-05-08T05:09:10.401Z,14.35
2023-05-08T05:10:11.932Z,14.20
2023-05-08T05:11:13.869Z,12.27
2023-05-08T05:12:15.913Z,13.10
2023-05-08T05:13:17.642Z,11.82
2023-05-08T05:14:19.311Z,12.23
2023-05-08T05:15:20.860Z,13.85
2023-05-08T05:16:22.477Z,11.15
2023-05-08T05:17:24.123Z,13.77
2023-05-08T05:18:25.659Z,13.90
2023-05-08T05:19:27.913Z,12.20
2023-05-08T05:20:31.140Z,10.25
2023-05-08T05:21:32.891Z,10.48
2023-05-08T05:22:34.591Z,11.68
2023-05-08T05:23:37.128Z,16.45
2023-05-08T05:24:39.948Z,12.18
2023-05-08T05:25:42.748Z,13.65
2023-05-08T05:26:44.510Z,11.77
2023-05-08T05:27:46.063Z,12.35
2023-05-08T05:28:47.774Z,12.70
2023-05-08T05:29:49.371Z,13.43
2023-05-08T05:30:52.590Z,16.92
2023-05-08T05:31:54.188Z,17.45
2023-05-08T05:32:55.821Z,12.07
2023-05-08T05:33:57.847Z,12.80
2023-05-08T05:34:59.812Z,12.88
2023-05-08T05:36:01.368Z,12.73
2023-05-08T05:37:05.034Z,12.93
2023-05-08T05:38:06.758Z,13.68
2023-05-08T05:39:08.329Z,12.35
2023-05-08T06:09:16.450Z,16.13
2023-05-08T06:10:18.085Z,12.88
2023-05-08T06:11:19.668Z,14.00
2023-05-08T06:12:21.366Z,14.77
2023-05-08T06:13:22.973Z,14.40
2023-05-08T06:14:25.589Z,12.43
2023-05-08T06:15:29.501Z,13.30
2023-05-08T06:16:32.393Z,13.55
2023-05-08T06:17:36.496Z,13.45
2023-05-08T06:18:38.949Z,18.17
2023-05-08T06:19:40.674Z,14.18
2023-05-08T06:20:42.793Z,14.30
2023-05-08T07:02:25.449Z,13.43
2023-05-08T07:03:28.179Z,13.00
2023-05-08T07:04:32.126Z,10.48
2023-05-08T07:05:37.215Z,12.63
2023-05-08T07:06:44.991Z,11.15
2023-05-08T07:07:47.436Z,10.60
2023-05-08T07:08:50.211Z,12.82
2023-05-08T07:09:53.186Z,12.15
2023-05-08T07:10:58.184Z,11.63
2023-05-08T07:12:00.846Z,10.60
2023-05-08T07:13:09.532Z,13.18
2023-05-08T07:43:13.915Z,10.88
2023-05-08T07:47:22.130Z,9.40
2023-05-08T07:48:24.922Z,12.00
2023-05-08T07:49:27.154Z,9.65
2023-05-08T07:50:31.903Z,9.40
2023-05-08T07:51:34.194Z,11.07
2023-05-08T07:52:36.116Z,12.23
2023-05-08T07:53:37.772Z,11.57
2023-05-08T07:54:40.243Z,9.70
2023-05-08T07:55:42.308Z,9.35
2023-05-08T07:56:44.110Z,8.65
2023-05-08T07:57:46.080Z,10.45
2023-05-08T07:58:52.431Z,9.00
2023-05-08T07:59:54.429Z,9.13
2023-05-08T08:00:57.515Z,11.32
2023-05-08T08:01:59.715Z,9.55
2023-05-08T08:03:04.784Z,8.77
2023-05-08T08:04:08.706Z,8.50
2023-05-08T08:05:11.655Z,8.48
2023-05-08T08:06:13.818Z,10.30
2023-05-08T08:07:17.028Z,9.35
2023-05-08T08:08:19.144Z,8.20
2023-05-08T08:09:21.071Z,8.80
2023-05-08T08:10:22.986Z,7.47
2023-05-08T08:11:25.149Z,8.52
2023-05-08T08:12:30.098Z,9.40
2023-05-08T08:13:33.094Z,7.85
2023-05-08T08:14:41.021Z,10.43
2023-05-08T08:15:42.752Z,9.75
2023-05-08T08:16:44.864Z,8.02
2023-05-08T08:17:46.678Z,9.25
2023-05-08T08:18:48.391Z,8.10
2023-05-08T08:19:50.230Z,8.10
2023-05-08T08:20:52.148Z,8.93
2023-05-08T08:21:54.111Z,7.95
2023-05-08T08:22:56.093Z,9.05
2023-05-08T08:23:59.232Z,8.77
2023-05-08T08:25:01.793Z,7.90
2023-05-08T08:26:07.173Z,11.70
2023-05-08T08:27:12.251Z,7.15
2023-05-08T08:28:14.184Z,6.70
2023-05-08T08:29:16.039Z,10.95
2023-05-08T08:31:20.879Z,7.80
2023-05-08T08:32:23.201Z,8.80
2023-05-08T08:33:29.646Z,8.07
2023-05-08T10:07:03.186Z,5.55
2023-05-08T10:08:21.550Z,6.65
2023-05-08T10:09:23.495Z,6.53
2023-05-08T10:10:34.864Z,6.95
2023-05-08T10:11:39.519Z,8.20
2023-05-08T10:12:48.721Z,6.32
2023-05-08T10:13:54.986Z,4.93
2023-05-08T10:14:57.643Z,6.03
2023-05-08T10:16:01.106Z,5.68
2023-05-08T16:04:58.451Z,3.60
2023-05-08T16:06:00.359Z,2.70
2023-05-08T16:07:02.429Z,3.58
2023-05-08T16:08:06.289Z,2.47
2023-05-08T16:09:08.234Z,2.83
2023-05-08T16:14:18.674Z,3.40
2023-05-08T16:15:20.299Z,2.20
2023-05-08T16:16:21.983Z,2.88
2023-05-08T16:17:23.611Z,2.80
2023-05-08T16:18:25.280Z,4.53
2023-05-08T16:19:26.866Z,2.40
2023-05-08T16:20:28.536Z,3.10
2023-05-08T16:21:30.225Z,3.13
2023-05-08T16:22:32.000Z,2.35
2023-05-08T16:23:33.647Z,2.70
2023-05-08T16:24:35.402Z,5.40
2023-05-08T16:26:39.444Z,2.90
2023-05-08T16:27:41.612Z,4.18
2023-05-08T16:28:43.462Z,2.30
2023-05-08T16:29:45.157Z,2.50
2023-05-08T16:30:46.851Z,3.78
2023-05-08T16:31:48.833Z,2.28
2023-05-08T16:32:50.986Z,2.50
2023-05-08T16:33:52.669Z,2.15
2023-05-08T16:34:54.545Z,4.63
2023-05-08T16:35:56.431Z,4.50
2023-05-08T16:36:58.791Z,2.85
2023-05-08T16:38:00.606Z,2.20
2023-05-08T16:39:02.175Z,3.85
2023-05-08T16:40:05.891Z,3.95
2023-05-08T16:41:09.997Z,2.55
2023-05-08T16:42:12.265Z,2.90
2023-05-08T16:43:16.818Z,2.72
2023-05-08T16:44:18.786Z,7.13
2023-05-08T16:45:20.476Z,3.80
2023-05-08T16:46:29.973Z,2.40
2023-05-08T16:47:32.915Z,1.80
2023-05-08T16:48:34.733Z,3.65
2023-05-08T16:49:37.771Z,2.58
2023-05-08T16:50:39.396Z,2.70
2023-05-08T16:51:41.075Z,2.50
2023-05-08T16:52:42.874Z,3.15
2023-05-08T16:53:45.633Z,2.45
2023-05-08T16:54:48.703Z,2.40
2023-05-08T16:55:52.799Z,3.55
2023-05-08T16:56:54.391Z,3.35
2023-05-08T16:57:56.057Z,3.17
2023-05-08T16:58:58.460Z,5.43
2023-05-08T17:00:00.037Z,3.50
2023-05-08T17:01:01.751Z,3.50
2023-05-08T17:02:03.747Z,2.63
2023-05-08T17:03:05.465Z,2.88
2023-05-08T17:06:13.239Z,2.40
2023-05-08T17:07:15.309Z,2.30
2023-05-08T17:08:17.820Z,2.25
2023-05-08T17:09:19.423Z,3.15
2023-05-08T17:10:21.543Z,3.15
2023-05-08T17:11:23.514Z,4.18
2023-05-08T17:12:25.249Z,5.80
2023-05-08T17:13:27.197Z,3.90
2023-05-08T17:14:30.016Z,4.55
2023-05-08T17:15:33.097Z,3.38
2023-05-08T17:16:35.087Z,3.40
2023-05-08T17:17:52.105Z,3.20
2023-05-08T17:18:54.642Z,6.82
2023-05-08T17:19:57.294Z,4.43
2023-05-08T17:21:08.986Z,4.30
2023-05-08T17:22:13.686Z,4.82
2023-05-08T17:23:15.651Z,6.95
2023-05-08T17:24:17.644Z,2.60
2023-05-08T17:25:19.613Z,3.50
2023-05-08T17:26:29.049Z,3.72
2023-05-08T17:27:31.620Z,2.63
2023-05-08T17:28:33.434Z,3.28
2023-05-08T17:29:38.705Z,2.85
2023-05-08T17:30:42.409Z,2.53
2023-05-08T17:31:47.335Z,3.20
2023-05-08T17:32:52.299Z,3.83
2023-05-08T17:33:54.278Z,2.72
2023-05-08T17:35:07.728Z,2.45
2023-05-08T17:36:10.384Z,5.10
2023-05-08T17:37:12.646Z,3.22
2023-05-08T17:38:14.290Z,3.03
2023-05-08T17:39:16.622Z,4.13
2023-05-08T17:40:25.500Z,3.53
2023-05-08T17:41:27.518Z,3.22
2023-05-08T17:42:32.548Z,3.20
2023-05-08T17:43:35.442Z,3.05
2023-05-08T17:44:37.424Z,3.50
2023-05-08T17:45:45.460Z,3.22
2023-05-08T17:46:47.271Z,3.28
2023-05-08T17:47:49.847Z,2.90
2023-05-08T17:48:52.837Z,3.40
2023-05-08T17:49:57.303Z,3.38
2023-05-08T17:51:00.193Z,4.65
2023-05-08T17:52:04.733Z,3.30
2023-05-08T17:53:07.108Z,3.17
2023-05-08T17:54:20.154Z,2.88
2023-05-08T17:55:23.053Z,6.38
2023-05-08T17:56:25.188Z,6.45
2023-05-08T17:57:27.248Z,4.20
2023-05-08T17:58:29.316Z,4.22
2023-05-08T17:59:43.198Z,4.45
2023-05-08T18:00:47.669Z,5.75
2023-05-08T18:01:49.457Z,4.70
2023-05-08T18:02:51.529Z,4.22
2023-05-08T18:03:59.238Z,4.15
2023-05-08T18:05:05.055Z,5.85
2023-05-08T18:06:07.116Z,5.00
2023-05-08T18:07:09.322Z,2.95
2023-05-08T18:08:15.033Z,5.45
2023-05-08T18:09:17.679Z,4.97
2023-05-08T18:10:21.582Z,4.40
2023-05-08T18:11:24.419Z,4.95
2023-05-08T18:12:27.793Z,3.40
2023-05-08T18:13:29.415Z,3.92
2023-05-08T18:14:32.488Z,4.15
2023-05-08T18:15:36.358Z,4.90
2023-05-08T18:16:38.136Z,6.13
2023-05-08T18:17:40.237Z,4.70
2023-05-08T18:18:42.807Z,6.57
2023-05-08T18:19:53.420Z,6.47
2023-05-08T18:23:01.583Z,4.40
2023-05-08T18:24:03.486Z,4.38
2023-05-08T18:25:05.627Z,5.50
2023-05-08T18:26:07.604Z,3.30
2023-05-08T18:27:09.325Z,4.15
2023-05-08T18:28:11.073Z,3.40
2023-05-08T18:29:14.058Z,4.85
2023-05-08T18:36:32.352Z,3.40
2023-05-08T18:37:34.221Z,5.50
2023-05-08T18:38:36.519Z,4.45
2023-05-08T18:39:38.196Z,6.35
2023-05-08T18:40:39.898Z,5.63
2023-05-08T18:41:41.597Z,6.95
2023-05-08T18:42:43.628Z,4.93
2023-05-08T18:48:55.144Z,7.50
2023-05-08T18:49:57.889Z,11.02
2023-05-08T18:52:01.510Z,13.10
2023-05-08T18:58:12.575Z,10.27
2023-05-08T18:59:14.154Z,7.85
2023-05-08T19:00:16.520Z,5.38
2023-05-08T19:01:20.503Z,6.60
2023-05-08T19:02:25.091Z,6.93
2023-05-08T19:03:27.088Z,7.63
2023-05-08T19:04:28.872Z,6.28
2023-05-08T19:05:30.500Z,5.00
2023-05-08T19:06:33.034Z,4.18
2023-05-08T19:07:34.749Z,6.22
2023-05-08T19:08:36.584Z,4.65
2023-05-08T19:09:38.564Z,6.25
2023-05-08T19:10:40.161Z,6.13
2023-05-08T19:11:42.257Z,5.60
2023-05-08T19:12:44.648Z,5.85
2023-05-08T19:13:50.521Z,5.50
2023-05-08T19:14:55.788Z,4.68
2023-05-08T19:15:57.677Z,8.52
2023-05-08T19:17:04.950Z,6.15
2023-05-08T19:18:11.352Z,5.75
2023-05-08T19:19:14.651Z,6.22
2023-05-08T19:20:16.507Z,6.25
2023-05-08T19:21:23.325Z,5.20
2023-05-08T19:22:25.151Z,6.88
2023-05-08T19:23:28.514Z,5.95
2023-05-08T19:24:35.992Z,7.85
2023-05-08T19:25:38.183Z,6.07
2023-05-08T19:26:42.173Z,5.55
2023-05-08T20:15:41.673Z,7.53
2023-05-08T20:16:43.413Z,6.85
2023-05-08T20:17:45.302Z,5.70
2023-05-08T20:18:47.260Z,8.65
2023-05-08T20:19:49.241Z,4.65
2023-05-08T20:20:51.551Z,4.30
2023-05-08T20:21:53.850Z,5.03
2023-05-08T20:23:12.610Z,4.18
2023-05-08T20:24:16.781Z,4.93
2023-05-08T20:25:19.218Z,4.97
2023-05-08T20:26:23.810Z,4.45
2023-05-08T20:27:25.814Z,4.90
2023-05-08T20:28:28.221Z,4.43
2023-05-08T20:29:33.773Z,4.57
2023-05-08T20:30:35.610Z,5.68
2023-05-08T20:31:37.597Z,5.22
2023-05-08T20:32:46.271Z,5.25
2023-05-08T20:33:50.317Z,5.53
2023-05-08T20:34:52.108Z,6.03
2023-05-08T20:35:58.673Z,6.13
2023-05-08T20:37:01.355Z,4.97
2023-05-08T20:38:03.602Z,5.30
2023-05-08T20:39:08.476Z,5.85
2023-05-08T20:40:11.713Z,4.35
2023-05-08T20:41:13.412Z,4.68
2023-05-08T20:42:15.458Z,5.95
2023-05-08T20:43:29.436Z,7.00
2023-05-08T20:44:33.086Z,4.88
2023-05-08T20:45:34.881Z,5.60
2023-05-08T20:46:37.504Z,5.65
2023-05-08T20:47:39.676Z,4.55
2023-05-08T20:48:42.276Z,6.40
2023-05-08T20:49:44.051Z,6.35
2023-05-08T20:50:51.993Z,6.10
2023-05-08T20:51:59.858Z,6.72
2023-05-08T20:53:01.755Z,7.90
2023-05-08T20:54:03.496Z,5.20
2023-05-08T20:55:05.529Z,6.13
2023-05-08T20:56:08.086Z,7.18
2023-05-08T20:57:09.900Z,6.97
2023-05-08T20:58:11.862Z,7.53
2023-05-08T20:59:16.713Z,5.07
2023-05-08T21:00:18.617Z,5.90
2023-05-08T21:01:22.138Z,5.63
2023-05-08T21:02:23.868Z,4.70
2023-05-08T21:03:25.484Z,7.65
2023-05-08T21:04:27.452Z,5.90
2023-05-08T21:05:29.369Z,5.43
2023-05-08T21:06:31.778Z,5.47
2023-05-08T21:07:33.342Z,6.18
2023-05-08T21:08:36.569Z,7.43
2023-05-08T21:09:39.189Z,6.07
2023-05-08T21:10:41.627Z,4.40
2023-05-08T21:11:43.271Z,5.03
2023-05-08T21:12:45.662Z,6.78
2023-05-08T21:13:48.441Z,4.35
2023-05-08T21:14:52.207Z,5.35
2023-05-08T21:15:53.833Z,4.45
2023-05-08T21:16:56.440Z,7.65
2023-05-08T21:17:58.216Z,4.28
2023-05-08T21:18:59.905Z,4.68
2023-05-08T21:20:01.427Z,5.13
2023-05-08T21:21:03.068Z,5.28
2023-05-08T21:22:05.080Z,5.20
2023-05-08T21:23:06.612Z,4.68
2023-05-08T21:24:08.871Z,5.57
2023-05-08T21:25:12.605Z,6.82
2023-05-08T21:26:19.072Z,5.70
2023-05-08T21:27:24.562Z,6.07
2023-05-08T21:28:26.195Z,5.10
2023-05-08T21:29:27.858Z,5.55
2023-05-08T21:30:30.809Z,5.55
2023-05-08T21:31:33.845Z,5.35
2023-05-08T21:32:35.789Z,5.35
2023-05-08T21:33:37.710Z,6.03
2023-05-08T21:34:39.483Z,5.10
2023-05-08T21:35:41.773Z,5.15
2023-05-08T21:36:43.498Z,6.13
2023-05-08T21:37:47.360Z,5.75
2023-05-08T21:38:50.126Z,7.07
2023-05-08T21:39:51.774Z,5.38
2023-05-08T21:41:02.217Z,7.35
2023-05-08T21:42:07.093Z,5.75
2023-05-08T21:43:09.941Z,7.00
2023-05-08T21:44:13.044Z,7.45
2023-05-08T21:45:19.211Z,6.40
2023-05-08T21:46:21.066Z,6.10
2023-05-08T21:47:23.034Z,5.00
2023-05-08T21:48:27.775Z,5.93
2023-05-08T21:49:29.408Z,6.55
2023-05-08T21:50:31.612Z,5.28
2023-05-08T21:51:34.252Z,6.82
2023-05-08T21:52:35.921Z,5.50
2023-05-08T21:53:37.482Z,5.03
2023-05-08T21:54:40.761Z,4.55
2023-05-08T21:55:43.457Z,6.22
2023-05-08T21:56:45.141Z,4.95
2023-05-08T21:57:46.757Z,5.35
2023-05-08T21:58:51.478Z,4.88
2023-05-08T21:59:57.669Z,5.22
2023-05-08T22:01:00.518Z,6.32
2023-05-08T22:02:03.590Z,7.68
2023-05-08T22:03:07.995Z,4.75
2023-05-08T22:04:12.226Z,4.88
2023-05-08T22:05:17.601Z,6.80
2023-05-08T22:06:20.198Z,4.53
2023-05-08T22:07:24.898Z,5.55
2023-05-08T22:08:27.472Z,4.57
2023-05-08T22:09:30.268Z,5.70
2023-05-08T22:10:31.844Z,6.40
2023-05-08T22:11:33.471Z,4.38
2023-05-08T22:12:36.365Z,4.38
2023-05-08T22:13:39.163Z,6.88
2023-05-08T22:14:42.590Z,5.07
2023-05-08T22:15:45.749Z,7.30
2023-05-08T22:16:47.725Z,5.45
2023-05-08T22:17:50.771Z,5.40
2023-05-08T22:18:53.514Z,5.20
2023-05-08T22:19:55.053Z,4.50
2023-05-08T22:20:57.626Z,5.60
2023-05-08T22:21:59.241Z,5.10
2023-05-08T22:23:00.857Z,6.85
2023-05-08T22:24:04.358Z,6.10
2023-05-08T22:25:08.560Z,5.18
2023-05-08T22:26:10.447Z,5.47
2023-05-08T22:27:12.045Z,4.65
2023-05-08T22:28:13.874Z,4.88
2023-05-08T22:29:17.183Z,7.30
2023-05-08T22:30:20.437Z,4.55
2023-05-08T22:31:22.627Z,5.53
2023-05-08T22:32:26.215Z,5.43
2023-05-08T22:33:32.459Z,5.53
2023-05-08T22:34:34.215Z,4.10
2023-05-08T22:35:36.126Z,5.85
2023-05-08T22:36:38.348Z,5.57
2023-05-08T22:37:40.670Z,5.30
2023-05-08T22:38:43.837Z,6.25
2023-05-08T22:39:45.746Z,5.18
2023-05-08T22:40:49.083Z,5.70
2023-05-08T22:41:51.823Z,4.90
2023-05-08T22:42:54.381Z,5.25
2023-05-08T22:43:57.891Z,5.82
2023-05-08T22:45:02.513Z,5.70
2023-05-08T22:46:06.063Z,6.97
2023-05-08T22:47:09.636Z,6.03
2023-05-08T22:48:11.770Z,4.75
2023-05-08T22:49:14.718Z,5.43
2023-05-08T22:50:17.456Z,5.43
2023-05-08T22:51:21.850Z,4.60
2023-05-08T22:52:23.521Z,6.07
2023-05-08T22:53:26.408Z,6.25
2023-05-08T22:54:28.608Z,5.88
2023-05-08T22:55:33.010Z,4.57
2023-05-08T22:56:38.931Z,5.00
2023-05-08T22:57:41.668Z,4.85
2023-05-08T22:58:46.780Z,5.22
2023-05-08T22:59:52.184Z,4.68
2023-05-08T23:00:54.196Z,5.50
2023-05-08T23:01:57.372Z,6.22
2023-05-08T23:02:59.727Z,5.03
2023-05-08T23:04:02.516Z,6.53
2023-05-08T23:05:04.714Z,5.90
2023-05-08T23:06:06.904Z,5.78
2023-05-08T23:07:08.669Z,6.75
2023-05-08T23:08:11.183Z,5.07
2023-05-08T23:09:13.801Z,6.63
2023-05-08T23:10:17.855Z,5.65
2023-05-08T23:11:20.715Z,8.40
2023-05-08T23:12:24.838Z,5.88
2023-05-08T23:13:30.375Z,4.90
2023-05-08T23:14:32.327Z,7.68
2023-05-08T23:15:34.518Z,5.03
2023-05-08T23:16:36.784Z,5.72
2023-05-08T23:17:38.804Z,6.00
2023-05-08T23:18:41.144Z,4.93
2023-05-08T23:19:43.250Z,7.25
2023-05-08T23:20:45.405Z,6.13
2023-05-08T23:21:47.742Z,5.72
2023-05-08T23:22:52.038Z,4.72
2023-05-08T23:23:54.714Z,5.40
2023-05-08T23:24:56.713Z,7.35
2023-05-08T23:26:04.948Z,6.90
2023-05-08T23:27:07.220Z,5.90
2023-05-08T23:28:09.653Z,4.47
2023-05-08T23:29:11.385Z,5.25
2023-05-08T23:30:13.516Z,5.93
2023-05-08T23:31:17.120Z,5.90
2023-05-08T23:32:19.310Z,4.95
2023-05-08T23:33:21.459Z,6.22
2023-05-08T23:34:23.777Z,5.28
2023-05-08T23:35:26.558Z,5.18
2023-05-08T23:36:28.322Z,6.38
2023-05-08T23:37:30.751Z,6.15
2023-05-08T23:38:32.485Z,6.22
2023-05-08T23:39:38.003Z,5.30
2023-05-08T23:40:42.920Z,4.85
2023-05-08T23:41:46.478Z,5.13
2023-05-08T23:42:49.444Z,5.95
2023-05-08T23:43:51.205Z,6.45
2023-05-08T23:44:52.782Z,6.78
2023-05-08T23:45:54.552Z,5.75
2023-05-08T23:46:56.395Z,5.13
2023-05-08T23:47:59.290Z,5.90
2023-05-08T23:49:01.029Z,7.60
2023-05-08T23:50:02.811Z,5.90
2023-05-08T23:51:04.784Z,5.50
2023-05-08T23:52:06.863Z,6.88
2023-05-08T23:53:09.158Z,5.55
2023-05-08T23:54:11.328Z,5.38
2023-05-08T23:55:13.552Z,5.50
2023-05-08T23:56:15.603Z,5.03
2023-05-08T23:57:18.137Z,6.15
2023-05-08T23:58:20.290Z,6.38
2023-05-08T23:59:22.983Z,4.90
